Daily Tabular Data
[Select Refresh to Update]


6/22/18
Time         Wind Dir   Wind Spd  Wind Gust     Hum In   Humidity    Temp In       Temp  Raw Barom   Tot Rain Wind Chill Heat Ix In Heat Index  Dew Point  DailyRain   HourRain   RainRate
                            mph        mph          %          %         F         F         in         in         F         F         F         F         in         in      in/hr
12:00am           271          2          5         57         87       74.5       64.7      29.07       4.96       64.7       76.0       69.9       60.7       0.00       0.00      0.000
12:30am           269          0          2         57         89       74.7       64.8      29.07       4.96       64.8       76.2       70.3       61.5       0.00       0.00      0.000
1:00am            325          0          1         57         89       74.6       64.6      29.06       4.96       64.6       76.1       70.1       61.3       0.00       0.00      0.000
1:30am            274          0          2         57         89       74.5       64.5      29.06       4.96       64.5       76.0       70.0       61.2       0.00       0.00      0.000
2:00am            338          0          3         57         89       74.4       64.2      29.06       4.96       64.2       75.9       69.7       60.9       0.00       0.00      0.000
2:30am            344          2          4         57         89       74.4       63.8      29.06       4.96       63.8       75.9       69.3       60.5       0.00       0.00      0.000
3:00am            336          0          4         57         89       74.3       63.9      29.05       4.96       63.9       75.8       69.4       60.6       0.00       0.00      0.000
3:30am            344          0          5         58         90       74.1       63.3      29.05       4.96       63.3       75.7       68.9       60.3       0.00       0.00      0.000
4:00am            346          2          3         58         90       74.0       63.1      29.05       4.96       63.1       75.6       68.7       60.1       0.00       0.00      0.000
4:30am            261          0          4         58         91       73.9       62.9      29.05       4.96       62.9       75.5       68.7       60.2       0.00       0.00      0.000
5:00am              9          0          2         58         91       73.8       63.0      29.05       4.96       63.0       75.4       68.8       60.3       0.00       0.00      0.000
5:30am            213          0          2         58         92       73.8       63.1      29.04       4.96       63.1       75.4       69.0       60.7       0.00       0.00      0.000
6:00am            239          0          2         58         91       73.8       63.3      29.04       4.96       63.3       75.4       69.1       60.6       0.00       0.00      0.000
6:30am            344          4          9         58         91       73.8       62.5      29.05       4.96       62.5       75.4       68.3       59.8       0.00       0.00      0.000
7:00am            328          0          5         58         91       73.7       62.7      29.05       4.96       62.7       75.3       68.5       60.0       0.00       0.00      0.000
7:30am            341          3          8         57         90       73.6       62.4      29.06       4.96       62.4       75.1       68.0       59.4       0.00       0.00      0.000
8:00am            350          0          5         57         91       73.6       63.4      29.07       4.96       63.4       75.1       69.2       60.7       0.00       0.00      0.000
8:30am            182          0          9         58         91       73.6       66.3      29.07       4.96       66.3       75.2       72.1       63.6       0.00       0.00      0.000
9:00am            210          0          3         58         79       73.4       69.8      29.07       4.96       69.8       75.0       73.9       63.0       0.00       0.00      0.000
9:30am            284          1          3         58         74       73.6       70.8      29.06       4.96       70.8       75.2       74.2       62.1       0.00       0.00      0.000
10:00am           317          0          3         58         72       74.0       72.0      29.06       4.96       72.0       75.6       75.2       62.5       0.00       0.00      0.000
10:30am           333          5          5         58         69       74.4       74.5      29.05       4.96       74.5       76.0       77.3       63.7       0.00       0.00      0.000
11:00am           342          0          9         58         71       74.8       73.0      29.05       4.96       73.0       76.4       76.1       63.1       0.00       0.00      0.000
11:30am           339          6          9         57         66       75.2       75.5      29.04       4.96       75.5       76.7       78.0       63.4       0.00       0.00      0.000
12:00pm           324          2          9         57         63       75.5       77.9      29.03       4.96       77.9       77.0       80.0       64.3       0.00       0.00      0.000
12:30pm           331          0          7         57         60       75.9       79.2      29.02       4.96       79.2       77.4       81.0       64.1       0.00       0.00      0.000
1:00pm            263          1          8         56         56       76.1       82.3      29.01       4.96       82.3       77.5       84.1       65.1       0.00       0.00      0.000
1:30pm            288          3         10         56         56       76.3       81.7      29.00       4.96       81.7       77.7       83.3       64.5       0.00       0.00      0.000
2:00pm            339          8         11         56         56       76.5       82.4      28.99       4.96       82.4       77.9       84.2       65.1       0.00       0.00      0.000
2:30pm            327          5         11         56         55       76.9       82.0      28.99       4.96       82.0       78.3       83.6       64.3       0.00       0.00      0.000
3:00pm            336          3         12         56         55       77.1       82.1      28.98       4.96       82.1       78.5       83.7       64.3       0.00       0.00      0.000
3:30pm            339          9         12         55         55       77.4       82.3      28.96       4.96       82.3       78.7       83.9       64.5       0.00       0.00      0.000
4:00pm            326          1         11         55         56       77.7       82.3      28.96       4.96       82.3       79.0       84.1       65.1       0.00       0.00      0.000
4:30pm            331          5         12         55         56       78.0       81.4      28.95       4.96       81.4       79.3       83.0       64.2       0.00       0.00      0.000
5:00pm            326          3         12         55         59       78.3       80.0      28.95       4.96       80.0       79.6       81.7       64.4       0.00       0.00      0.000
5:30pm            333          5         10         48         59       78.0       79.3      28.94       4.96       79.3       78.6       81.0       63.7       0.00       0.00      0.000
6:00pm            344          3         10         47         64       77.4       78.0      28.94       4.96       78.0       77.9       80.3       64.8       0.00       0.00      0.000
6:30pm            322          2          6         46         63       77.0       77.6      28.95       4.96       77.6       77.4       79.7       64.0       0.00       0.00      0.000
7:00pm             13          4          5         46         65       76.6       76.4      28.95       4.96       76.4       77.0       78.8       63.8       0.00       0.00      0.000
7:30pm            316          0          6         51         68       77.0       74.4      28.95       4.96       74.4       77.9       77.1       63.2       0.00       0.00      0.000
8:00pm            327          0          5         54         75       77.5       70.9      28.95       4.96       70.9       78.7       74.5       62.6       0.00       0.00      0.000
8:30pm            261          0          3         56         81       76.5       69.2      28.96       4.96       69.2       77.9       73.6       63.1       0.00       0.00      0.000
9:00pm            174          5          6         57         84       75.8       66.7      28.97       4.96       66.7       77.3       71.5       61.7       0.00       0.00      0.000
9:30pm            168          1          9         57         88       76.0       65.0      28.98       4.96       65.0       77.5       70.3       61.4       0.00       0.00      0.000
10:00pm           175          0         10         57         89       76.0       66.3      28.98       4.96       66.3       77.5       71.8       63.0       0.00       0.00      0.000
10:30pm           173          0          6         58         89       75.4       65.1      28.99       4.96       65.1       77.0       70.6       61.8       0.00       0.00      0.000
11:00pm           182          0          7         58         90       75.0       64.5      28.98       4.96       64.5       76.6       70.1       61.5       0.00       0.00      0.000
11:30pm           164          2          5         59         90       74.7       64.4      28.98       4.96       64.4       76.4       70.0       61.4       0.00       0.00      0.000